Terminal Aerodrome Forecast
Issued by NWS

Current Version | Previous Version | Graphics & Text | Print | Product List | Glossary On
Versions: 1 2 3 4 5 6 7 8 9 10 11 12 13 14 15 16 17 18 19 20 21 22
036
FTUS41 KRLX 050535
TAFCKB
TAF
KCKB 050535Z 0506/0606 30006KT 6SM -SN SCT015 BKN025 OVC050
     FM051200 31005KT P6SM BKN020
     FM051500 27004KT P6SM BKN025
     FM051600 27005KT P6SM SCT030=

USA.gov is the U.S. government's official web portal to all federal, state and local government web resources and services.